Impacts METAR Board
IDs:

KBFM - Mobile/Downtown Arpt, AL, US

Updated at: 1000 UTC 16 Aug 2018
Potential Impact None Slight Moderate High
Time 15/22Z 15/23Z 16/00Z 16/01Z 16/02Z 16/03Z 16/04Z 16/05Z 16/06Z 16/07Z 16/08Z 16/09Z 16/10Z
Temp90 86 87 85 85 85 85 85 85 83 82 79 80
Dewpt78 78 75 76 77 77 76 77 77 77 77 77 78
Altim30.04 30.03 30.04 30.04 30.06 30.07 30.07 30.06 30.06 30.06 30.06 30.06 30.07
VIS10 10 10 10 10 10 10 10 10 10 10 10 6
CIG-- -- -- -- -- -- -- -- -- 39 -- -- --
CoverSCTFEWFEWFEWFEWCLRFEWCLRSCTBKNCLRFEWSCT
FltCatVFRVFRVFRVFRVFRVFRVFRVFRVFRVFRVFRVFRVFR
WX------------------------VCTS -RA BR
WDir150170170170160160160160170000160
WSpd8 5 5 4 6 7 6 7 4 0 0 0 9
WGst-- -- -- -- -- -- -- -- -- -- -- -- --
Raw hourly METARs
KBFM 152153Z 15008KT 10SM SCT025 32/26 A3004 RMK AO2 LTG DSNT NW SLP170 TCU DSNT NE-SE T03220256
KBFM 152253Z 17005KT 10SM FEW025 30/26 A3003 RMK AO2 SLP169 T03000256
KBFM 152353Z 17005KT 10SM FEW025 31/24 A3004 RMK AO2 SLP170 60000 T03060239 10328 20300 55004
KBFM 160053Z 17004KT 10SM FEW030 29/24 A3004 RMK AO2 SLP172 T02940244
KBFM 160153Z 16006KT 10SM FEW022 29/25 A3006 RMK AO2 SLP180 T02940250
KBFM 160253Z 16007KT 10SM CLR 29/25 A3007 RMK AO2 SLP181 T02940250 53011
KBFM 160353Z 16006KT 10SM FEW026 29/24 A3007 RMK AO2 SLP182 T02940244
KBFM 160453Z 16007KT 10SM CLR 29/25 A3006 RMK AO2 SLP180 T02940250
KBFM 160553Z AUTO 17004KT 10SM SCT022 29/25 A3006 RMK AO2 SLP180 T02940250 10306 20289 403280239 58001
KBFM 160653Z AUTO 00000KT 10SM SCT024 BKN039 28/25 A3006 RMK AO2 SLP177 T02830250
KBFM 160753Z AUTO 00000KT 10SM CLR 28/25 A3006 RMK AO2 SLP177 T02780250
KBFM 160853Z 00000KT 10SM FEW010 FEW080 26/25 A3006 RMK AO2 LTG DSNT SW SLP179 CB DSNT SW T02610250 55001
KBFM 160953Z COR 16009KT 6SM VCTS -RA BR FEW010 SCT025CB 27/26 A3007 RMK AO2 LTG DSNT SE AND S SLP183 OCNL LTICCG SE AND S TS VC SE AND S MOV LTL T02670256



Page loaded:  10:25 UTC  |   03:25 AM Pacific  |   04:25 AM Mountain  |   05:25 AM Central  |   06:25 AM Eastern

 

ADVISORIES

FORECASTS

FORECASTS

OBSERVATIONS

USER TOOLS

ABOUT US